Time;durP1;ratioP1;P1;durP2;ratioP2;P2;SDS_P1;SDS_P2;PMS_P1;PMS_P2;Temp;Humidity;BMP_temperature;BMP_pressure;BME280_temperature;BME280_humidity;BME280_pressure;Samples;Min_cycle;Max_cycle;Signal;HPM_P1;HPM_P2
2023/12/03 00:02:05;;;;;;;85.82;27.63;;;0.80;99.90;;;;;;4994654;28;20045;-75
2023/12/03 00:04:31;;;;;;;86.25;27.55;;;0.70;99.90;;;;;;4993839;28;20472;-75
2023/12/03 00:06:56;;;;;;;80.07;27.15;;;0.70;99.90;;;;;;4994000;28;20041;-74
2023/12/03 00:09:22;;;;;;;83.80;26.50;;;0.70;99.90;;;;;;4992641;28;20038;-75
2023/12/03 00:11:47;;;;;;;83.90;26.63;;;0.70;99.90;;;;;;4992182;28;20090;-75
2023/12/03 00:14:13;;;;;;;91.20;28.17;;;0.70;99.90;;;;;;4994005;28;20087;-76
2023/12/03 00:16:39;;;;;;;78.25;26.50;;;0.70;99.90;;;;;;4992634;28;20053;-76
2023/12/03 00:19:04;;;;;;;92.32;28.48;;;0.70;99.90;;;;;;4993493;28;20137;-74
2023/12/03 00:21:30;;;;;;;89.00;28.35;;;0.70;99.90;;;;;;4993511;28;20056;-75
2023/12/03 00:23:56;;;;;;;97.57;30.75;;;0.70;99.90;;;;;;5008531;28;20068;-73
2023/12/03 00:26:21;;;;;;;98.15;30.83;;;0.70;99.90;;;;;;5008061;28;20124;-75
2023/12/03 00:28:47;;;;;;;79.95;26.33;;;0.70;99.90;;;;;;4993954;28;20027;-74
2023/12/03 00:31:12;;;;;;;91.43;28.05;;;0.70;99.90;;;;;;5009040;28;20038;-75
2023/12/03 00:33:38;;;;;;;98.63;29.65;;;0.70;99.90;;;;;;4993967;28;20030;-74
2023/12/03 00:36:04;;;;;;;91.55;29.13;;;0.80;99.90;;;;;;4993970;28;20019;-75
2023/12/03 00:38:29;;;;;;;87.65;29.02;;;0.70;99.90;;;;;;4992343;28;20037;-74
2023/12/03 00:40:55;;;;;;;89.82;29.10;;;0.70;99.90;;;;;;4992434;28;20030;-74
2023/12/03 00:43:21;;;;;;;92.20;29.20;;;0.70;99.90;;;;;;4993696;28;20056;-74
2023/12/03 00:45:46;;;;;;;86.20;28.73;;;0.70;99.90;;;;;;4992506;28;20019;-75
2023/12/03 00:48:12;;;;;;;92.53;28.10;;;0.70;99.90;;;;;;4993403;28;20019;-74
2023/12/03 00:50:38;;;;;;;82.72;26.83;;;0.60;99.90;;;;;;5008780;28;20525;-74
2023/12/03 00:53:03;;;;;;;90.57;26.80;;;0.60;99.90;;;;;;4993506;28;20019;-72
2023/12/03 00:55:29;;;;;;;82.60;26.95;;;0.70;99.90;;;;;;4993595;28;20026;-73
2023/12/03 00:57:54;;;;;;;73.15;26.58;;;0.70;99.90;;;;;;4993261;28;20038;-72
2023/12/03 01:00:20;;;;;;;82.63;28.08;;;0.70;99.90;;;;;;4993115;28;20121;-73
2023/12/03 01:02:45;;;;;;;84.57;28.42;;;0.70;99.90;;;;;;4993538;28;20047;-72
2023/12/03 01:05:11;;;;;;;80.22;25.80;;;0.70;99.90;;;;;;4991930;28;20022;-73
2023/12/03 01:07:37;;;;;;;79.07;26.35;;;0.70;99.90;;;;;;4993390;28;20030;-73
2023/12/03 01:10:02;;;;;;;81.10;27.83;;;0.70;99.90;;;;;;4992982;28;20033;-73
2023/12/03 01:12:28;;;;;;;82.43;28.80;;;0.70;99.90;;;;;;4992813;28;20054;-72
2023/12/03 01:14:54;;;;;;;83.60;27.35;;;0.70;99.90;;;;;;4992951;28;20026;-73
2023/12/03 01:17:19;;;;;;;82.43;26.40;;;0.70;99.90;;;;;;4989891;28;20019;-73
2023/12/03 01:19:45;;;;;;;80.88;26.90;;;0.80;99.90;;;;;;4993117;28;20113;-73
2023/12/03 01:22:10;;;;;;;87.93;26.98;;;0.80;99.90;;;;;;4992833;28;20590;-73
2023/12/03 01:24:36;;;;;;;86.05;27.27;;;0.80;99.90;;;;;;4991319;28;20057;-73
2023/12/03 01:27:02;;;;;;;93.90;30.08;;;0.80;99.90;;;;;;4992326;28;20483;-73
2023/12/03 01:29:27;;;;;;;86.53;27.10;;;0.80;99.90;;;;;;4992935;28;20030;-74
2023/12/03 01:31:53;;;;;;;80.70;27.10;;;0.80;99.90;;;;;;4993108;28;20058;-71
2023/12/03 01:34:19;;;;;;;83.38;27.50;;;0.80;99.90;;;;;;4991292;28;20019;-73
2023/12/03 01:36:44;;;;;;;89.15;28.27;;;0.90;99.90;;;;;;4992679;28;20022;-73
2023/12/03 01:39:10;;;;;;;82.32;27.25;;;0.90;99.90;;;;;;4992768;28;20094;-72
2023/12/03 01:41:35;;;;;;;85.78;28.00;;;0.90;99.90;;;;;;4992979;28;20030;-73
2023/12/03 01:44:01;;;;;;;91.00;29.83;;;0.90;99.90;;;;;;4991245;28;20057;-72
2023/12/03 01:46:27;;;;;;;80.78;27.05;;;0.90;99.90;;;;;;4992642;28;20539;-74
2023/12/03 01:48:54;;;;;;;83.97;28.92;;;0.90;99.90;;;;;;4992441;28;20491;-73
2023/12/03 01:51:20;;;;;;;83.68;27.42;;;0.90;99.90;;;;;;4992556;28;20042;-72
2023/12/03 01:53:45;;;;;;;79.63;27.13;;;1.00;99.90;;;;;;4992629;28;20023;-74
2023/12/03 01:56:11;;;;;;;78.50;27.08;;;0.90;99.90;;;;;;4992631;28;20022;-75
2023/12/03 01:58:37;;;;;;;89.57;28.63;;;0.90;99.90;;;;;;4992646;28;21561;-73
2023/12/03 02:01:03;;;;;;;89.78;28.55;;;0.90;99.90;;;;;;4990252;28;20054;-73
2023/12/03 02:03:29;;;;;;;86.72;28.38;;;0.90;99.90;;;;;;4992175;28;20073;-71
2023/12/03 02:06:10;;;;;;;81.43;27.17;;;0.90;99.90;;;;;;4992230;28;20109;-75
2023/12/03 02:08:36;;;;;;;77.03;26.20;;;0.90;99.90;;;;;;4988744;28;20081;-72
2023/12/03 02:11:05;;;;;;;80.68;26.10;;;0.90;99.90;;;;;;4990436;28;20031;-73
2023/12/03 02:13:32;;;;;;;79.68;28.15;;;0.90;99.90;;;;;;4990989;28;20954;-71
2023/12/03 02:15:58;;;;;;;80.78;26.25;;;0.90;99.90;;;;;;4992408;28;20030;-72
2023/12/03 02:18:25;;;;;;;79.90;26.75;;;0.90;99.90;;;;;;4991432;28;20033;-73
2023/12/03 02:20:51;;;;;;;78.65;26.65;;;0.90;99.90;;;;;;4992323;28;20165;-72
2023/12/03 02:23:16;;;;;;;76.20;25.70;;;0.90;99.90;;;;;;5007300;28;20058;-71
2023/12/03 02:25:42;;;;;;;85.63;27.58;;;0.90;99.90;;;;;;4991533;28;20125;-72
2023/12/03 02:28:08;;;;;;;84.35;27.58;;;0.90;99.90;;;;;;4992178;28;20479;-73
2023/12/03 02:30:34;;;;;;;81.93;26.80;;;0.80;99.90;;;;;;5007312;28;20030;-73
2023/12/03 02:33:00;;;;;;;74.82;25.48;;;0.90;99.90;;;;;;4992502;28;20050;-73
2023/12/03 02:35:25;;;;;;;77.45;26.45;;;0.90;99.90;;;;;;4994277;28;20030;-72
2023/12/03 02:37:51;;;;;;;85.57;27.15;;;0.90;99.90;;;;;;5010410;28;20022;-73
2023/12/03 02:40:17;;;;;;;86.43;26.98;;;0.80;99.90;;;;;;4995754;28;20058;-73
2023/12/03 02:42:42;;;;;;;76.88;25.60;;;0.90;99.90;;;;;;4994694;28;20044;-72
2023/12/03 02:45:09;;;;;;;75.95;26.35;;;0.80;99.90;;;;;;4996054;28;20027;-72
2023/12/03 02:47:35;;;;;;;78.75;26.67;;;0.80;99.90;;;;;;4995230;28;20026;-72
2023/12/03 02:50:01;;;;;;;78.43;25.77;;;0.90;99.90;;;;;;4994280;28;20041;-71
2023/12/03 02:52:27;;;;;;;77.03;25.42;;;0.80;99.90;;;;;;5010498;28;20033;-74
2023/12/03 02:54:53;;;;;;;71.15;25.27;;;0.80;99.90;;;;;;5010385;28;20022;-71
2023/12/03 02:57:18;;;;;;;66.00;24.15;;;0.80;99.90;;;;;;4995538;28;20023;-73
2023/12/03 02:59:44;;;;;;;76.32;25.50;;;0.80;99.90;;;;;;4995827;28;20042;-72
2023/12/03 03:02:10;;;;;;;76.22;26.58;;;0.80;99.90;;;;;;4994196;28;20038;-72
2023/12/03 03:04:35;;;;;;;68.45;23.98;;;0.80;99.90;;;;;;4995871;28;20065;-72
2023/12/03 03:07:01;;;;;;;74.10;26.02;;;0.80;99.90;;;;;;4994017;28;20030;-72
2023/12/03 03:09:27;;;;;;;73.63;25.50;;;0.80;99.90;;;;;;4995523;28;20046;-73
2023/12/03 03:11:54;;;;;;;75.80;25.17;;;0.90;99.90;;;;;;4995321;28;20038;-73
2023/12/03 03:14:20;;;;;;;74.88;24.63;;;0.90;99.90;;;;;;4995151;28;20023;-72
2023/12/03 03:16:45;;;;;;;73.72;24.33;;;0.90;99.90;;;;;;4995336;28;20038;-73
2023/12/03 03:19:11;;;;;;;76.40;25.75;;;1.00;99.90;;;;;;4993327;28;20027;-74
2023/12/03 03:21:41;;;;;;;69.85;24.95;;;0.90;99.90;;;;;;5010364;28;20062;-72
2023/12/03 03:24:07;;;;;;;75.55;25.80;;;1.00;99.90;;;;;;4994242;28;20106;-72
2023/12/03 03:26:32;;;;;;;75.00;25.73;;;1.00;99.90;;;;;;4995025;28;20054;-74
2023/12/03 03:28:58;;;;;;;78.43;25.65;;;0.90;99.90;;;;;;4994823;28;20544;-73
2023/12/03 03:31:23;;;;;;;69.75;25.30;;;0.90;99.90;;;;;;4995089;28;20019;-72
2023/12/03 03:33:49;;;;;;;75.22;24.17;;;0.90;99.90;;;;;;5010036;28;20026;-72
2023/12/03 03:36:16;;;;;;;71.88;24.83;;;1.00;99.90;;;;;;4995009;28;20043;-73
2023/12/03 03:38:44;;;;;;;79.13;26.17;;;1.00;99.90;;;;;;4994354;28;20023;-74
2023/12/03 03:41:10;;;;;;;72.03;25.70;;;1.00;99.90;;;;;;4993041;28;20030;-73
2023/12/03 03:43:36;;;;;;;75.65;24.33;;;0.90;99.90;;;;;;4995009;28;20133;-72
2023/12/03 03:46:02;;;;;;;74.82;25.88;;;0.90;99.90;;;;;;4992390;28;20150;-73
2023/12/03 03:48:28;;;;;;;82.75;26.50;;;0.90;99.90;;;;;;4994592;28;20241;-72
2023/12/03 03:50:53;;;;;;;78.43;26.60;;;0.80;99.90;;;;;;5009448;28;20038;-73
2023/12/03 03:53:19;;;;;;;86.00;27.52;;;0.90;99.90;;;;;;5009450;28;20146;-73
2023/12/03 03:55:45;;;;;;;75.32;25.02;;;0.90;99.90;;;;;;4994719;28;20534;-73
2023/12/03 03:58:10;;;;;;;83.20;25.85;;;0.90;99.90;;;;;;4994202;28;20432;-73
2023/12/03 04:00:36;;;;;;;76.95;25.90;;;0.90;99.90;;;;;;4992949;28;20034;-73
2023/12/03 04:03:01;;;;;;;84.53;26.63;;;0.90;99.90;;;;;;4994345;28;20079;-72
2023/12/03 04:05:27;;;;;;;83.72;26.67;;;0.90;99.90;;;;;;4994578;28;20034;-72
2023/12/03 04:07:53;;;;;;;81.22;27.10;;;0.90;99.90;;;;;;4994316;28;20033;-73
2023/12/03 04:10:18;;;;;;;79.35;25.20;;;0.90;99.90;;;;;;4992917;28;20026;-73
2023/12/03 04:12:44;;;;;;;80.35;26.92;;;0.90;99.90;;;;;;4994618;28;20065;-73
2023/12/03 04:15:10;;;;;;;85.13;26.52;;;0.90;99.90;;;;;;4994150;28;20042;-75
2023/12/03 04:17:36;;;;;;;85.05;26.98;;;0.90;99.90;;;;;;4994276;28;20018;-73
2023/12/03 04:20:02;;;;;;;79.18;26.02;;;1.00;99.90;;;;;;4993867;28;20029;-73
2023/12/03 04:22:27;;;;;;;82.50;27.25;;;1.00;99.90;;;;;;4992749;28;20042;-72
2023/12/03 04:24:53;;;;;;;81.32;25.88;;;1.00;99.90;;;;;;4993440;28;20061;-74
2023/12/03 04:27:19;;;;;;;80.20;27.45;;;1.00;99.90;;;;;;4991073;28;20089;-71
2023/12/03 04:29:44;;;;;;;78.45;26.80;;;0.90;99.90;;;;;;4993257;28;20518;-73
2023/12/03 04:32:10;;;;;;;80.88;26.95;;;0.90;99.90;;;;;;4994079;28;20064;-73
2023/12/03 04:34:39;;;;;;;75.97;26.27;;;0.90;99.90;;;;;;4992611;28;20019;-74
2023/12/03 04:37:04;;;;;;;74.25;26.30;;;0.90;99.90;;;;;;4993371;28;20030;-72
2023/12/03 04:39:30;;;;;;;78.55;25.60;;;0.90;99.90;;;;;;4992805;28;20477;-72
2023/12/03 04:41:56;;;;;;;71.85;25.70;;;0.90;99.90;;;;;;4993110;28;20073;-74
2023/12/03 04:44:21;;;;;;;73.45;24.40;;;1.00;99.90;;;;;;4993074;28;20026;-73
2023/12/03 04:46:48;;;;;;;84.15;26.85;;;0.90;99.90;;;;;;4992161;28;20030;-71
2023/12/03 04:49:13;;;;;;;77.70;25.27;;;0.90;99.90;;;;;;4992395;28;20094;-72
2023/12/03 04:51:39;;;;;;;76.93;24.95;;;0.90;99.90;;;;;;4993142;28;20073;-72
2023/12/03 04:54:05;;;;;;;78.90;26.63;;;0.90;99.90;;;;;;4993542;28;20744;-72
2023/12/03 04:56:31;;;;;;;75.68;25.45;;;0.90;99.90;;;;;;4992726;28;20026;-74
2023/12/03 04:58:56;;;;;;;82.07;26.52;;;0.90;99.90;;;;;;4991972;28;20054;-73
2023/12/03 05:01:22;;;;;;;78.90;24.50;;;0.90;99.90;;;;;;4993015;28;20034;-72
2023/12/03 05:03:48;;;;;;;76.95;27.08;;;0.90;99.90;;;;;;4993085;28;20471;-74
2023/12/03 05:06:14;;;;;;;79.18;25.85;;;0.90;99.90;;;;;;4993204;28;20023;-72
2023/12/03 05:08:39;;;;;;;76.95;25.60;;;0.90;99.90;;;;;;4993332;28;20475;-73
2023/12/03 05:11:06;;;;;;;79.70;26.23;;;1.00;99.90;;;;;;4992545;28;20037;-72
2023/12/03 05:13:34;;;;;;;77.50;25.10;;;1.00;99.90;;;;;;4992398;28;20465;-72
2023/12/03 05:16:07;;;;;;;72.00;24.92;;;1.00;99.90;;;;;;4992407;28;20083;-72
2023/12/03 05:18:32;;;;;;;77.10;25.23;;;1.00;99.90;;;;;;4992793;28;20134;-72
2023/12/03 05:20:58;;;;;;;69.50;24.48;;;1.00;99.90;;;;;;4991161;28;20026;-72
2023/12/03 05:23:25;;;;;;;63.08;22.00;;;0.90;99.90;;;;;;4990843;28;20030;-72
2023/12/03 05:25:51;;;;;;;57.75;20.35;;;1.00;99.90;;;;;;4992156;28;20114;-73
2023/12/03 05:28:16;;;;;;;66.00;21.00;;;0.90;99.90;;;;;;4992291;28;20065;-72
2023/12/03 05:30:42;;;;;;;68.63;24.30;;;1.00;99.90;;;;;;4992244;28;20019;-73
2023/12/03 05:33:08;;;;;;;69.35;24.60;;;1.00;99.90;;;;;;4991238;28;20030;-73
2023/12/03 05:35:33;;;;;;;73.15;24.50;;;1.00;99.90;;;;;;4992267;28;20772;-73
2023/12/03 05:37:59;;;;;;;67.88;23.02;;;1.00;99.90;;;;;;4991811;28;21110;-72
2023/12/03 05:40:25;;;;;;;70.88;24.80;;;1.00;99.90;;;;;;4991852;28;20031;-72
2023/12/03 05:42:50;;;;;;;69.93;23.88;;;1.00;99.90;;;;;;4992101;28;20066;-72
2023/12/03 05:45:16;;;;;;;67.72;23.70;;;1.00;99.90;;;;;;4990591;28;20042;-73
2023/12/03 05:47:42;;;;;;;75.65;24.08;;;1.00;99.90;;;;;;4991522;28;20026;-73
2023/12/03 05:50:07;;;;;;;75.47;24.73;;;1.00;99.90;;;;;;5007662;28;20027;-71
2023/12/03 05:52:33;;;;;;;68.90;23.35;;;1.00;99.90;;;;;;4992443;28;20041;-72
2023/12/03 05:54:59;;;;;;;75.72;24.75;;;1.10;99.90;;;;;;4992324;28;20026;-73
2023/12/03 05:57:24;;;;;;;68.65;24.40;;;1.10;99.90;;;;;;4990825;28;20061;-72
2023/12/03 05:59:53;;;;;;;82.88;26.67;;;1.20;99.90;;;;;;4993497;28;20037;-74
2023/12/03 06:02:19;;;;;;;68.30;23.67;;;1.20;99.90;;;;;;5006618;28;20406;-72
2023/12/03 06:04:45;;;;;;;69.30;24.70;;;1.20;99.90;;;;;;4992462;28;20022;-72
2023/12/03 06:07:11;;;;;;;70.07;24.55;;;1.20;99.90;;;;;;4992451;28;20133;-73
2023/12/03 06:09:37;;;;;;;68.85;23.75;;;1.20;99.90;;;;;;4991473;28;20072;-74
2023/12/03 06:12:02;;;;;;;71.30;26.63;;;1.20;99.90;;;;;;4985910;28;20062;-73
2023/12/03 06:14:28;;;;;;;71.25;26.10;;;1.20;99.90;;;;;;4989896;28;20038;-71
2023/12/03 06:16:54;;;;;;;75.65;24.33;;;1.20;99.90;;;;;;4990944;28;20031;-72
2023/12/03 06:19:19;;;;;;;65.47;24.00;;;1.20;99.90;;;;;;4988615;28;20034;-72
2023/12/03 06:21:45;;;;;;;66.55;23.67;;;1.20;99.90;;;;;;5006878;28;20033;-73
2023/12/03 06:24:11;;;;;;;68.95;23.63;;;1.10;99.90;;;;;;4992479;28;20105;-72
2023/12/03 06:26:36;;;;;;;71.57;24.17;;;1.20;99.90;;;;;;4991223;28;20051;-72
2023/12/03 06:29:02;;;;;;;64.18;22.38;;;1.20;99.90;;;;;;4991144;28;20077;-73
2023/12/03 06:31:28;;;;;;;63.53;22.50;;;1.20;99.90;;;;;;5006843;28;20026;-72
2023/12/03 06:33:53;;;;;;;67.30;22.60;;;1.10;99.90;;;;;;4989497;28;20113;-73
2023/12/03 06:36:19;;;;;;;66.55;24.85;;;1.10;99.90;;;;;;4986750;28;20089;-71
2023/12/03 06:38:45;;;;;;;73.88;24.35;;;1.10;99.90;;;;;;4990037;28;20023;-73
2023/12/03 06:41:10;;;;;;;65.57;23.30;;;1.10;99.90;;;;;;4987868;28;20112;-72
2023/12/03 06:43:36;;;;;;;61.05;22.92;;;1.00;99.90;;;;;;4991325;28;20881;-72
2023/12/03 06:46:02;;;;;;;60.78;22.52;;;1.10;99.90;;;;;;4992036;28;20275;-73
2023/12/03 06:48:28;;;;;;;60.47;22.35;;;1.00;99.90;;;;;;4990162;28;20604;-71
2023/12/03 06:50:53;;;;;;;78.28;26.25;;;1.10;99.90;;;;;;4990176;28;20077;-73
2023/12/03 06:53:19;;;;;;;68.55;25.52;;;1.00;99.90;;;;;;4987544;28;20085;-73
2023/12/03 06:55:45;;;;;;;70.07;24.48;;;1.10;99.90;;;;;;4990159;28;20033;-76
2023/12/03 06:58:12;;;;;;;68.13;23.08;;;1.00;99.90;;;;;;4990050;28;20066;-73
2023/12/03 07:00:38;;;;;;;69.47;23.73;;;1.10;99.90;;;;;;4990236;28;20031;-74
2023/12/03 07:03:04;;;;;;;66.95;23.85;;;1.00;99.90;;;;;;4982778;28;20651;-74
2023/12/03 07:05:29;;;;;;;67.68;24.10;;;1.10;99.90;;;;;;5003807;28;20059;-73
2023/12/03 07:07:55;;;;;;;66.50;23.52;;;1.10;99.90;;;;;;4988802;28;20034;-73
2023/12/03 07:10:20;;;;;;;65.18;23.63;;;1.10;99.90;;;;;;4991437;28;20113;-73
2023/12/03 07:12:46;;;;;;;65.50;22.35;;;1.10;99.90;;;;;;4989141;28;20039;-72
2023/12/03 07:15:11;;;;;;;68.40;24.63;;;1.00;99.90;;;;;;4990318;28;20042;-74
2023/12/03 07:17:40;;;;;;;64.85;23.60;;;1.00;99.90;;;;;;4982608;28;20031;-73
2023/12/03 07:20:08;;;;;;;66.75;24.48;;;1.00;99.90;;;;;;4991677;28;20056;-73
2023/12/03 07:22:34;;;;;;;68.35;24.20;;;1.00;99.90;;;;;;4992125;28;20040;-73
2023/12/03 07:25:00;;;;;;;64.82;23.08;;;1.00;99.90;;;;;;4994409;28;20303;-72
2023/12/03 07:27:25;;;;;;;60.65;22.77;;;1.00;99.90;;;;;;4994861;28;20038;-74
2023/12/03 07:29:55;;;;;;;58.40;22.60;;;1.00;99.90;;;;;;5005875;28;20026;-73
2023/12/03 07:32:21;;;;;;;64.25;23.23;;;1.00;99.90;;;;;;4994500;28;20041;-73
2023/12/03 07:34:47;;;;;;;60.58;22.27;;;1.00;99.90;;;;;;4993718;28;20444;-76
2023/12/03 07:37:13;;;;;;;56.10;20.85;;;1.00;99.90;;;;;;4990373;28;20035;-74
2023/12/03 07:39:39;;;;;;;59.20;22.25;;;1.00;99.90;;;;;;4995206;28;20033;-75
2023/12/03 07:42:05;;;;;;;61.67;22.27;;;1.00;99.90;;;;;;4994522;28;20054;-72
2023/12/03 07:44:30;;;;;;;66.75;22.95;;;1.10;99.90;;;;;;4994996;28;20058;-74
2023/12/03 07:46:56;;;;;;;68.15;23.30;;;1.10;99.90;;;;;;4994448;28;20018;-73
2023/12/03 07:49:21;;;;;;;69.35;23.40;;;1.10;99.90;;;;;;4994866;28;20026;-74
2023/12/03 07:51:47;;;;;;;58.85;23.10;;;1.10;99.90;;;;;;4993660;28;20035;-74
2023/12/03 07:54:13;;;;;;;63.65;23.35;;;1.10;99.90;;;;;;4990697;28;20039;-73
2023/12/03 07:56:40;;;;;;;63.17;22.42;;;1.10;99.90;;;;;;4990911;28;20125;-73
2023/12/03 07:59:07;;;;;;;64.60;22.38;;;1.10;99.90;;;;;;4991853;28;20034;-74
2023/12/03 08:01:33;;;;;;;70.45;22.95;;;1.10;99.90;;;;;;4991534;28;20042;-73
2023/12/03 08:03:59;;;;;;;65.65;24.08;;;1.10;99.90;;;;;;4987949;28;20050;-75
2023/12/03 08:06:25;;;;;;;66.70;24.85;;;1.10;99.90;;;;;;4993964;28;20037;-73
2023/12/03 08:08:52;;;;;;;74.10;25.02;;;1.10;99.90;;;;;;4991128;28;20073;-74
2023/12/03 08:11:18;;;;;;;73.82;24.17;;;1.10;99.90;;;;;;4991480;28;20034;-71
2023/12/03 08:13:44;;;;;;;72.53;24.10;;;1.10;99.90;;;;;;4993429;28;20077;-74
2023/12/03 08:16:10;;;;;;;75.30;24.88;;;1.20;99.90;;;;;;4994497;28;20541;-72
2023/12/03 08:18:35;;;;;;;71.00;23.80;;;1.20;99.90;;;;;;5009118;28;20102;-74
2023/12/03 08:21:01;;;;;;;70.80;25.02;;;1.20;99.90;;;;;;4994224;28;20029;-74
2023/12/03 08:23:26;;;;;;;70.70;24.15;;;1.20;99.90;;;;;;4993653;28;21518;-72
2023/12/03 08:25:52;;;;;;;83.07;26.13;;;1.20;99.90;;;;;;5007725;28;20054;-75
2023/12/03 08:28:18;;;;;;;76.32;25.40;;;1.20;99.90;;;;;;4990666;28;20030;-74
2023/12/03 08:30:44;;;;;;;74.72;25.85;;;1.30;99.90;;;;;;4991914;28;20134;-74
2023/12/03 08:33:10;;;;;;;74.15;24.25;;;1.30;99.90;;;;;;4993533;28;20107;-73
2023/12/03 08:35:35;;;;;;;73.93;24.27;;;1.30;99.90;;;;;;4990229;28;20379;-74
2023/12/03 08:38:01;;;;;;;74.38;25.17;;;1.40;99.90;;;;;;4991435;28;20042;-73
2023/12/03 08:40:27;;;;;;;78.45;26.77;;;1.40;99.90;;;;;;4991554;28;20030;-74
2023/12/03 08:42:52;;;;;;;75.53;25.55;;;1.40;99.90;;;;;;4987463;28;20419;-72
2023/12/03 08:45:18;;;;;;;77.07;25.13;;;1.40;99.90;;;;;;4988400;28;20121;-74
2023/12/03 08:47:43;;;;;;;73.88;26.10;;;1.50;99.90;;;;;;4992051;28;20022;-75
2023/12/03 08:50:09;;;;;;;75.10;27.27;;;1.40;99.90;;;;;;4993042;28;20030;-71
2023/12/03 08:52:35;;;;;;;76.13;26.52;;;1.40;99.90;;;;;;4990891;28;20042;-73
2023/12/03 08:55:02;;;;;;;75.40;25.85;;;1.40;99.90;;;;;;4986386;28;20040;-72
2023/12/03 08:57:28;;;;;;;73.97;27.30;;;1.40;99.90;;;;;;4991180;28;20028;-72
2023/12/03 08:59:54;;;;;;;78.00;26.17;;;1.40;99.90;;;;;;4987808;28;20054;-73
2023/12/03 09:02:20;;;;;;;75.50;27.40;;;1.50;99.90;;;;;;4989397;28;20046;-73
2023/12/03 09:04:46;;;;;;;87.05;28.05;;;1.50;99.90;;;;;;4989367;28;20067;-72
2023/12/03 09:07:12;;;;;;;80.00;26.38;;;1.50;99.90;;;;;;4986020;28;20042;-74
2023/12/03 09:09:39;;;;;;;83.50;27.58;;;1.60;99.90;;;;;;4989210;28;20392;-73
2023/12/03 09:12:05;;;;;;;90.47;28.83;;;1.60;99.90;;;;;;4988361;28;20046;-75
2023/12/03 09:14:31;;;;;;;83.13;27.55;;;1.60;99.90;;;;;;4991834;28;20035;-72
2023/12/03 09:16:58;;;;;;;83.00;28.25;;;1.70;99.90;;;;;;4989532;28;20031;-72
2023/12/03 09:19:24;;;;;;;83.68;28.67;;;1.70;99.90;;;;;;4990212;28;20281;-72
2023/12/03 09:21:50;;;;;;;85.45;27.85;;;1.70;99.90;;;;;;5006514;28;20023;-73
2023/12/03 09:24:16;;;;;;;83.00;26.98;;;1.70;99.90;;;;;;4992505;28;20041;-73
2023/12/03 09:26:44;;;;;;;86.20;28.25;;;1.70;99.90;;;;;;4990491;28;20462;-73
2023/12/03 09:29:13;;;;;;;79.72;26.75;;;1.70;99.90;;;;;;4992128;28;20033;-74
2023/12/03 09:31:41;;;;;;;81.03;27.75;;;1.70;99.90;;;;;;4991421;28;20053;-74
2023/12/03 09:34:07;;;;;;;82.45;28.50;;;1.70;99.90;;;;;;4993001;28;20041;-71
2023/12/03 09:36:34;;;;;;;89.22;29.73;;;1.80;99.90;;;;;;4990340;28;20027;-73
2023/12/03 09:39:00;;;;;;;82.53;28.27;;;1.80;99.90;;;;;;4992147;28;20037;-73
2023/12/03 09:41:28;;;;;;;76.65;26.50;;;1.80;99.90;;;;;;4990142;28;20165;-72
2023/12/03 09:43:59;;;;;;;82.00;28.40;;;1.90;99.90;;;;;;4987297;28;20169;-74
2023/12/03 09:46:30;;;;;;;78.15;28.10;;;1.90;99.90;;;;;;4990050;28;20026;-73
2023/12/03 09:49:00;;;;;;;87.78;27.95;;;1.90;99.90;;;;;;4991990;28;20023;-72
2023/12/03 09:51:27;;;;;;;87.63;28.95;;;2.00;99.90;;;;;;4991024;28;20027;-73
2023/12/03 09:53:57;;;;;;;114.03;36.40;;;2.00;99.90;;;;;;4987619;28;20030;-72
2023/12/03 09:56:24;;;;;;;84.75;30.05;;;2.00;99.90;;;;;;4988101;28;20031;-74
2023/12/03 09:58:51;;;;;;;79.65;27.33;;;2.00;99.90;;;;;;4991216;28;20034;-72
2023/12/03 10:01:19;;;;;;;96.65;28.33;;;2.00;99.90;;;;;;4987505;28;20026;-74
2023/12/03 10:03:44;;;;;;;84.75;28.92;;;2.00;99.90;;;;;;4990387;28;20038;-74
2023/12/03 10:06:11;;;;;;;77.63;27.70;;;2.00;99.90;;;;;;4991020;28;20041;-72
2023/12/03 10:08:39;;;;;;;91.55;30.95;;;2.00;99.90;;;;;;4988682;28;20062;-72
2023/12/03 10:11:07;;;;;;;97.80;33.15;;;2.00;99.90;;;;;;4989988;28;20236;-74
2023/12/03 10:13:34;;;;;;;90.78;30.27;;;2.00;99.90;;;;;;4986710;28;20038;-73
2023/12/03 10:16:00;;;;;;;82.22;29.25;;;2.00;99.90;;;;;;5005557;28;20476;-72
2023/12/03 10:18:26;;;;;;;83.65;27.55;;;2.00;99.90;;;;;;4988618;28;20081;-72
2023/12/03 10:21:24;;;;;;;85.70;28.00;;;2.00;99.90;;;;;;4989752;28;20030;-73
2023/12/03 10:23:58;;;;;;;80.90;26.63;;;2.00;99.90;;;;;;4965508;28;20051;-73
2023/12/03 10:26:23;;;;;;;77.68;25.38;;;2.00;99.90;;;;;;4989881;28;20062;-73
2023/12/03 10:28:49;;;;;;;75.32;26.15;;;2.00;99.90;;;;;;4991983;28;20060;-74
2023/12/03 10:31:15;;;;;;;80.43;26.65;;;2.00;99.90;;;;;;4990699;28;20459;-73
2023/12/03 10:33:45;;;;;;;73.15;25.23;;;2.00;99.90;;;;;;5005699;28;20034;-72
2023/12/03 10:36:12;;;;;;;77.40;25.77;;;2.00;99.90;;;;;;4987811;28;20379;-72
2023/12/03 10:38:39;;;;;;;87.47;25.95;;;2.00;99.90;;;;;;4986609;28;20030;-73
2023/12/03 10:41:14;;;;;;;74.30;25.95;;;2.10;99.90;;;;;;5003051;28;20033;-74
2023/12/03 10:43:42;;;;;;;72.35;25.73;;;2.10;99.90;;;;;;5002614;28;20038;-74
2023/12/03 10:46:12;;;;;;;74.28;25.98;;;2.10;99.90;;;;;;4990858;28;20030;-72
2023/12/03 10:48:41;;;;;;;81.60;26.13;;;2.10;99.90;;;;;;4990460;28;20026;-71
2023/12/03 10:51:08;;;;;;;61.13;22.52;;;2.10;99.90;;;;;;4991192;28;20031;-73
2023/12/03 10:53:35;;;;;;;58.22;20.27;;;2.10;99.90;;;;;;4989618;28;20031;-72
2023/12/03 10:56:05;;;;;;;56.03;19.40;;;2.10;99.90;;;;;;4992693;28;20034;-73
2023/12/03 10:58:33;;;;;;;50.83;17.48;;;2.10;99.90;;;;;;4993155;28;20047;-73
2023/12/03 11:01:20;;;;;;;54.72;18.88;;;2.10;99.90;;;;;;4992798;28;20037;-73
2023/12/03 11:03:57;;;;;;;45.15;18.13;;;2.10;99.90;;;;;;4994145;28;20030;-72
2023/12/03 11:06:24;;;;;;;46.70;16.60;;;2.10;99.90;;;;;;4995028;28;20058;-72
2023/12/03 11:08:51;;;;;;;45.88;16.45;;;2.10;99.90;;;;;;4991919;28;20098;-75
2023/12/03 11:11:19;;;;;;;42.47;15.55;;;2.10;99.90;;;;;;4992763;28;20030;-72
2023/12/03 11:13:49;;;;;;;47.63;15.57;;;2.10;99.90;;;;;;4991007;28;20501;-74
2023/12/03 11:16:15;;;;;;;36.83;14.13;;;2.10;99.90;;;;;;4991182;28;20049;-74
2023/12/03 11:18:56;;;;;;;44.97;15.95;;;2.10;99.90;;;;;;4993807;28;20095;-74
2023/12/03 11:21:42;;;;;;;44.15;15.95;;;2.10;99.90;;;;;;4994484;28;20037;-73
2023/12/03 11:24:26;;;;;;;44.08;15.75;;;2.10;99.90;;;;;;4993886;28;20137;-73
2023/12/03 11:26:52;;;;;;;;;;;2.10;99.90;;;;;;4995033;28;20059;-72
2023/12/03 11:29:17;;;;;;;44.58;14.95;;;2.10;99.90;;;;;;4993518;28;19913;-75
2023/12/03 11:31:43;;;;;;;49.88;16.50;;;2.10;99.90;;;;;;4992519;28;20062;-73
2023/12/03 11:34:10;;;;;;;42.70;15.50;;;2.10;99.90;;;;;;4995090;28;20023;-73
2023/12/03 11:36:49;;;;;;;42.85;16.13;;;2.10;99.90;;;;;;4994151;28;20057;-72
2023/12/03 11:39:15;;;;;;;52.78;16.05;;;2.20;99.90;;;;;;4994245;28;20090;-75
2023/12/03 11:41:44;;;;;;;49.55;17.55;;;2.10;99.90;;;;;;4994329;28;20015;-73
2023/12/03 11:44:18;;;;;;;48.17;17.08;;;2.10;99.90;;;;;;4992579;28;20058;-73
2023/12/03 11:46:50;;;;;;;51.90;18.80;;;2.10;99.90;;;;;;4985365;28;21246;-73
2023/12/03 11:49:17;;;;;;;56.30;20.27;;;2.10;99.90;;;;;;4987775;28;20090;-73
2023/12/03 11:51:46;;;;;;;61.05;22.02;;;2.10;99.90;;;;;;4992759;28;20014;-72
2023/12/03 11:54:28;;;;;;;53.33;20.17;;;2.10;99.90;;;;;;4989264;28;20030;-73
2023/12/03 11:56:54;;;;;;;57.55;21.27;;;2.00;99.90;;;;;;4991217;28;20034;-73
2023/12/03 11:59:20;;;;;;;59.45;21.08;;;2.00;99.90;;;;;;4990751;28;20026;-74
2023/12/03 12:01:45;;;;;;;57.60;21.80;;;2.10;99.90;;;;;;4986770;28;20030;-73
2023/12/03 12:04:21;;;;;;;53.53;19.52;;;2.10;99.90;;;;;;4989823;28;20050;-74
2023/12/03 12:06:47;;;;;;;59.67;21.50;;;2.00;99.90;;;;;;4992932;28;20038;-73
2023/12/03 12:09:20;;;;;;;54.97;19.60;;;2.10;99.90;;;;;;4991574;28;20030;-74
2023/12/03 12:11:47;;;;;;;52.65;19.88;;;2.10;99.90;;;;;;4997897;28;20038;-72
2023/12/03 12:14:14;;;;;;;51.60;18.55;;;2.10;99.90;;;;;;4989132;28;20058;-72
2023/12/03 12:16:41;;;;;;;52.97;21.23;;;2.10;99.90;;;;;;4990732;28;20041;-72
2023/12/03 12:19:07;;;;;;;57.22;20.98;;;2.10;99.90;;;;;;4990189;28;20038;-71
2023/12/03 12:21:32;;;;;;;56.60;20.23;;;2.10;99.90;;;;;;4992267;28;20058;-74
2023/12/03 12:23:58;;;;;;;49.45;19.80;;;2.10;99.90;;;;;;4992120;28;20877;-72
2023/12/03 12:26:24;;;;;;;53.97;21.63;;;2.10;99.90;;;;;;4992568;28;20079;-71
2023/12/03 12:28:50;;;;;;;58.22;21.08;;;2.10;99.90;;;;;;4991698;28;20090;-74
2023/12/03 12:31:19;;;;;;;55.17;20.80;;;2.10;99.90;;;;;;4986488;28;20026;-73
2023/12/03 12:33:45;;;;;;;51.42;20.17;;;2.10;99.90;;;;;;4988535;28;20034;-74
2023/12/03 12:36:11;;;;;;;49.95;19.67;;;2.10;99.90;;;;;;4990471;28;20035;-74